Weather

DAILY 7 DAY TOTAL
onrain

Note: Some stations are located near irrigated fields and may also report irrigation

Alliston Mount Forest Blyth Guelph Grand Bend Strathroy Woodstock Belmont Simcoe Leamington Chatham West Lorne






Belmont - Historical Weather Data
Date Max Temp (°C) Min Temp (°C) Avg Temp (°C) Rain (mm) 7Day Rain(mm) Total Rain(mm) Avg RH (%)
6/16/2019 18.3 10.7 15.4 - 0.2 -1887.0 99.2
6/15/2019 18.5 15.5 16.8 - 0.2 -888.0 97.0
6/14/2019 22.4 9.4 15.7 0.0 0.2 111.0 87.1
6/13/2019 20.5 10.3 15.4 0.0 0.2 111.0 98.4
6/12/2019 23.1 6.2 16.4 0.0 0.2 111.0 77.8
6/11/2019 22.2 7.0 15.3 0.0 0.2 111.0 82.8
6/10/2019 22.4 12.2 17.6 0.2 0.2 111.0 97.1
6/9/2019 25.9 14.7 21.0 0.0 0.0 110.8 82.9
6/8/2019 26.4 9.7 19.0 0.0 0.6 110.8 74.7
6/7/2019 26.3 9.6 18.1 0.0 1.2 110.8 85.3
6/6/2019 23.9 12.2 17.1 0.0 1.2 110.8 97.8
6/5/2019 23.5 15.8 18.4 0.0 1.2 110.8 99.9
6/4/2019 21.9 4.2 14.6 0.0 1.2 110.8 91.4
6/3/2019 15.6 3.8 10.2 0.0 1.4 110.8 87.7
6/2/2019 18.5 7.2 14.3 0.6 1.4 110.8 87.3
6/1/2019 24.1 13.2 17.2 0.6 0.8 110.2 98.5
5/31/2019 22.7 7.3 15.5 0.0 0.4 109.6 86.4
5/30/2019 21.0 12.2 16.3 0.0 0.4 109.6 99.0
5/29/2019 17.0 10.7 13.4 0.0 6.6 109.6 99.9
5/28/2019 16.6 11.6 14.0 0.2 8.0 109.6 99.4
5/27/2019 24.2 6.3 16.0 0.0 7.8 109.4 87.5
5/26/2019 22.3 10.1 17.2 0.0 7.8 109.4 94.4
5/25/2019 28.4 10.2 18.0 0.2 10.0 109.4 97.8
5/24/2019 17.8 7.4 13.6 0.0 10.0 109.2 97.1
5/23/2019 26.3 8.9 17.9 6.2 10.0 109.2 88.1
5/22/2019 18.0 5.2 12.3 1.4 3.8 103.0 90.0
5/21/2019 18.9 1.4 10.9 0.0 3.6 101.6 86.7
5/20/2019 16.3 4.0 12.2 0.0 3.6 101.6 97.3
5/19/2019 27.4 8.5 17.4 2.2 9.2 101.6 93.8
5/18/2019 18.6 4.0 12.0 0.2 10.2 99.4 89.8
5/17/2019 18.0 6.8 14.1 0.0 10.0 99.2 92.0
5/16/2019 19.2 3.5 13.3 0.0 25.4 99.2 87.6
5/15/2019 21.7 3.7 12.0 1.2 42.6 99.2 88.7
5/14/2019 16.7 5.1 9.9 0.0 41.4 98.0 88.7
5/13/2019 8.8 4.9 6.4 5.6 56.6 98.0 99.9
5/12/2019 10.0 5.7 7.7 3.2 51.6 92.4 97.4
5/11/2019 12.6 -0.7 7.2 0.0 48.4 89.2 89.3
5/10/2019 16.3 2.8 10.8 15.4 49.0 89.2 98.6
5/9/2019 22.9 7.3 14.4 17.2 41.6 73.8 90.4
5/8/2019 13.7 3.9 9.0 0.0 27.0 56.6 77.8
5/7/2019 10.7 4.9 7.9 15.2 56.6 56.6 99.0
5/6/2019 21.7 3.8 13.0 0.6 46.2 41.4 92.3
5/5/2019 20.9 5.1 12.2 0.0 48.8 40.8 89.4
5/4/2019 11.9 6.8 10.0 0.6 52.0 40.8 99.9
5/3/2019 13.5 9.0 10.6 8.0 51.6 40.2 99.9
5/2/2019 18.6 5.8 11.8 2.6 58.8 32.2 98.3
5/1/2019 19.4 5.3 11.3 29.6 56.2 29.6 99.6